Dennysville, Maine
Current Conditions -  °F | °C
As of 11:15 AM on Friday 24 Oct 2014 (Local Time) from KBHB Reporting Station
Overcast Overcast  
Wind Chill: 43°   Ceiling: 900
Heat Index: 48°   Visibility: 10mi
Dew Point: 48°   Wind: 13mph
Humidity: 100%   Direction: 360°N
Pressure: 29.62"   Gusts: 20mph
Location:  44.9°N, 67.23°W
Report Text: KBHB 241515Z AUTO 36011G17KT 10SM OVC009 09/09 A2962 RMK AO1
Loading
Personal Weather Stations






























Interactive Weather Map
Tropical Storm Tracking
New forecast layout! Learn more

10-Day Weather Forecast

Advertisements
Track Severe Weather on mobile